Flight Track Log - Related Links

Times and Time Zones

All times are in EDT time to prevent confusion due to time zone crossing. See the N110GW flight status page for this flight to view local times or setup timezone preferences in your user account.

Time Position Orientation Groundspeed Altitude Reporting Facility
EDT Latitude Longitude Course Direction KTS MPH feet Rate Location/Type
Fri 03:02:58 PM 26.2364 -80.1064 133° Southeast 112 129 600  Level Miami Center
Fri 03:03:10 PM 26.2325 -80.1017 133° Southeast 109 125 800 1,397 Climbing Miami Center
Fri 03:04:11 PM 26.2439 -80.0581 74° East 166 191 2,300 1,073 Climbing Miami Center
Fri 03:05:13 PM 26.2744 -80.0936 314° West 225 259 3,000 829 Climbing Miami Center
Fri 03:06:14 PM 26.2814 -80.1539 277° West 192 221 4,000 492 Climbing Miami Center
Fri 03:07:15 PM 26.2922 -80.2214 280° West 232 267 4,000 836 Level Miami Center
Fri 03:08:16 PM 26.2931 -80.2839 271° West 165 190 5,700 1,750 Climbing Miami Center
Fri 03:09:15 PM 26.2917 -80.3350 268° West 162 186 7,500 1,770 Climbing Miami Center
Fri 03:09:17 PM 26.2917 -80.3372 270° West 161 185 7,500 500 Level Miami Center
Fri 03:10:15 PM 26.2906 -80.3836 268° West 226 260 8,000 484 Climbing Miami Center
Fri 03:10:19 PM 26.2903 -80.3953 268° West 207 238 8,000  Level Miami Center
Fri 03:11:15 PM 26.2825 -80.4597 262° West 232 267 8,000  Level Miami Center
Fri 03:11:20 PM 26.2822 -80.4667 267° West 239 275 8,000  Level Miami Center
Fri 03:12:15 PM 26.2850 -80.5247 273° West 246 283 8,000  Level Miami Center
Fri 03:13:15 PM 26.2808 -80.6081 267° West 246 283 8,000  Level Miami Center
Fri 03:14:15 PM 26.2769 -80.6750 266° West 246 283 8,000  Level Miami Center
Fri 03:15:15 PM 26.2706 -80.7583 265° West 246 283 8,000  Level Miami Center
Fri 03:16:15 PM 26.2647 -80.8253 264° West 246 283 8,000  Level Miami Center
Fri 03:17:15 PM 26.2583 -80.9061 265° West 246 283 8,000  Level Miami Center
Fri 03:18:15 PM 26.2522 -80.9706 264° West 246 283 8,000 -650 Level Miami Center
Fri 03:19:15 PM 26.2456 -81.0583 265° West 248 285 6,700 -1,500 Descending Miami Center
Fri 03:20:15 PM 26.2411 -81.1394 267° West 262 302 5,000 -1,150 Descending Miami Center
Fri 03:21:15 PM 26.2350 -81.2108 265° West 255 293 4,400 -500 Descending Miami Center
Fri 03:22:15 PM 26.2308 -81.2733 266° West 230 265 4,000 -200 Descending Miami Center
Fri 03:23:15 PM 26.2269 -81.3378 266° West 230 265 4,000  Level Miami Center
Fri 03:24:15 PM 26.2206 -81.4072 264° West 225 259 4,000 -100 Level Miami Center
Fri 03:25:15 PM 26.2225 -81.4744 272° West 225 259 3,800 -950 Descending Miami Center
Fri 03:26:15 PM 26.2286 -81.5439 276° West 231 266 2,100 -900 Descending Miami Center
Fri 03:27:15 PM 26.2331 -81.6067 275° West 218 251 2,000 -50 Descending Miami Center
Fri 03:28:15 PM 26.2353 -81.6669 272° West 205 236 2,000 -250 Level Miami Center
Fri 03:29:15 PM 26.2150 -81.7078 241° Southwest 173 199 1,500 -500 Descending Miami Center
Fri 03:31:00 PM 26.1500 -81.7667 261° West  Level FlightAware Approximate
Fri 03:38:00 PM 26.1524 -81.7756 261° West  Level Estimated
Fri 03:39:00 PM 26.1524 -81.7756 261° West  Level Estimated

Login

Don't have an account? Register now (free) for customized features, flight alerts, and more!